Atmautluak, Alaska
Current Conditions -  °F | °C
As of 8:53 PM on Thursday 30 Oct 2014 (Local Time) from PABE Reporting Station
Clear Clear  
Wind Chill: -15°   Ceiling: Unl
Heat Index: -9°   Visibility: 10mi
Dew Point: -11°   Wind: 8mph
Humidity: 91%   Direction: 30°NNE
Pressure: 29.66"   Gusts: NA
Location:  60.7494°N, 161.727°W
Report Text: PABE 310453Z 03007KT 10SM CLR M09/M11 A2966 RMK AO2 SLP047 T10941106
Loading
Personal Weather Stations






























Interactive Weather Map
Tropical Storm Tracking
New forecast layout! Learn more

10-Day Weather Forecast

Advertisements
Track Severe Weather on mobile